sensor_id;sensor_type;location;lat;lon;timestamp;temperature;humidity
65864;SHT30;52639;51.180;20.460;2022-11-15T00:00:27;4.15;97.02
65864;SHT30;52639;51.180;20.460;2022-11-15T00:04:40;4.16;97.07
65864;SHT30;52639;51.180;20.460;2022-11-15T00:08:43;4.19;96.74
65864;SHT30;52639;51.180;20.460;2022-11-15T00:12:47;4.20;96.72
65864;SHT30;52639;51.180;20.460;2022-11-15T00:16:50;4.18;96.53
65864;SHT30;52639;51.180;20.460;2022-11-15T00:20:54;4.19;96.31
65864;SHT30;52639;51.180;20.460;2022-11-15T00:24:58;4.18;95.87
65864;SHT30;52639;51.180;20.460;2022-11-15T00:29:01;4.19;96.58
65864;SHT30;52639;51.180;20.460;2022-11-15T00:33:05;4.18;95.84
65864;SHT30;52639;51.180;20.460;2022-11-15T00:37:09;4.22;95.69
65864;SHT30;52639;51.180;20.460;2022-11-15T00:41:12;4.22;95.54
65864;SHT30;52639;51.180;20.460;2022-11-15T00:45:15;4.23;95.73
65864;SHT30;52639;51.180;20.460;2022-11-15T00:49:18;4.20;96.17
65864;SHT30;52639;51.180;20.460;2022-11-15T00:53:21;4.20;96.26
65864;SHT30;52639;51.180;20.460;2022-11-15T00:57:24;4.20;96.15
65864;SHT30;52639;51.180;20.460;2022-11-15T01:01:27;4.20;96.53
65864;SHT30;52639;51.180;20.460;2022-11-15T01:05:29;4.26;96.11
65864;SHT30;52639;51.180;20.460;2022-11-15T01:09:33;4.30;95.71
65864;SHT30;52639;51.180;20.460;2022-11-15T01:13:37;4.28;95.26
65864;SHT30;52639;51.180;20.460;2022-11-15T01:17:39;4.22;95.45
65864;SHT30;52639;51.180;20.460;2022-11-15T01:21:43;4.20;95.71
65864;SHT30;52639;51.180;20.460;2022-11-15T01:25:47;4.22;95.63
65864;SHT30;52639;51.180;20.460;2022-11-15T01:29:49;4.20;95.47
65864;SHT30;52639;51.180;20.460;2022-11-15T01:33:52;4.20;96.17
65864;SHT30;52639;51.180;20.460;2022-11-15T01:37:55;4.19;95.93
65864;SHT30;52639;51.180;20.460;2022-11-15T01:41:59;4.16;96.12
65864;SHT30;52639;51.180;20.460;2022-11-15T01:46:06;4.18;96.09
65864;SHT30;52639;51.180;20.460;2022-11-15T01:50:19;4.18;96.25
65864;SHT30;52639;51.180;20.460;2022-11-15T01:54:24;4.16;95.89
65864;SHT30;52639;51.180;20.460;2022-11-15T01:58:28;4.15;95.77
65864;SHT30;52639;51.180;20.460;2022-11-15T02:02:32;4.09;96.27
65864;SHT30;52639;51.180;20.460;2022-11-15T02:06:36;4.06;96.02
65864;SHT30;52639;51.180;20.460;2022-11-15T02:10:39;4.09;95.93
65864;SHT30;52639;51.180;20.460;2022-11-15T02:14:46;4.02;97.50
65864;SHT30;52639;51.180;20.460;2022-11-15T02:18:54;3.99;97.83
65864;SHT30;52639;51.180;20.460;2022-11-15T02:23:25;3.99;97.84
65864;SHT30;52639;51.180;20.460;2022-11-15T02:27:59;4.02;97.85
65864;SHT30;52639;51.180;20.460;2022-11-15T02:32:15;4.01;97.87
65864;SHT30;52639;51.180;20.460;2022-11-15T02:36:31;4.03;97.43
65864;SHT30;52639;51.180;20.460;2022-11-15T02:40:43;4.05;97.18
65864;SHT30;52639;51.180;20.460;2022-11-15T02:44:49;4.08;97.17
65864;SHT30;52639;51.180;20.460;2022-11-15T02:48:54;4.08;96.73
65864;SHT30;52639;51.180;20.460;2022-11-15T02:52:57;4.09;96.59
65864;SHT30;52639;51.180;20.460;2022-11-15T02:57:02;4.06;96.50
65864;SHT30;52639;51.180;20.460;2022-11-15T03:01:11;4.03;96.49
65864;SHT30;52639;51.180;20.460;2022-11-15T03:05:19;4.01;96.38
65864;SHT30;52639;51.180;20.460;2022-11-15T03:09:32;4.03;96.13
65864;SHT30;52639;51.180;20.460;2022-11-15T03:13:39;4.01;96.16
65864;SHT30;52639;51.180;20.460;2022-11-15T03:17:50;4.05;95.98
65864;SHT30;52639;51.180;20.460;2022-11-15T03:21:58;4.06;96.01
65864;SHT30;52639;51.180;20.460;2022-11-15T03:26:05;4.09;95.79
65864;SHT30;52639;51.180;20.460;2022-11-15T03:30:10;4.06;96.10
65864;SHT30;52639;51.180;20.460;2022-11-15T03:34:21;4.06;96.32
65864;SHT30;52639;51.180;20.460;2022-11-15T03:38:30;4.05;96.11
65864;SHT30;52639;51.180;20.460;2022-11-15T03:42:39;4.06;96.21
65864;SHT30;52639;51.180;20.460;2022-11-15T03:46:47;4.06;95.92
65864;SHT30;52639;51.180;20.460;2022-11-15T03:50:54;4.02;96.81
65864;SHT30;52639;51.180;20.460;2022-11-15T03:55:00;4.02;96.46
65864;SHT30;52639;51.180;20.460;2022-11-15T03:59:03;4.03;96.11
65864;SHT30;52639;51.180;20.460;2022-11-15T04:03:06;3.99;96.76
65864;SHT30;52639;51.180;20.460;2022-11-15T04:07:09;4.02;96.52
65864;SHT30;52639;51.180;20.460;2022-11-15T04:11:13;3.99;96.12
65864;SHT30;52639;51.180;20.460;2022-11-15T04:15:19;3.99;96.25
65864;SHT30;52639;51.180;20.460;2022-11-15T04:19:22;3.99;96.35
65864;SHT30;52639;51.180;20.460;2022-11-15T04:23:42;4.03;96.25
65864;SHT30;52639;51.180;20.460;2022-11-15T04:28:15;3.99;95.91
65864;SHT30;52639;51.180;20.460;2022-11-15T04:32:17;3.96;96.03
65864;SHT30;52639;51.180;20.460;2022-11-15T04:36:20;3.96;96.03
65864;SHT30;52639;51.180;20.460;2022-11-15T04:40:41;3.96;96.08
65864;SHT30;52639;51.180;20.460;2022-11-15T04:44:45;3.94;95.97
65864;SHT30;52639;51.180;20.460;2022-11-15T04:48:48;3.94;95.96
65864;SHT30;52639;51.180;20.460;2022-11-15T04:52:52;3.86;96.55
65864;SHT30;52639;51.180;20.460;2022-11-15T04:56:55;3.89;96.45
65864;SHT30;52639;51.180;20.460;2022-11-15T05:01:06;3.86;96.56
65864;SHT30;52639;51.180;20.460;2022-11-15T05:05:09;3.82;96.59
65864;SHT30;52639;51.180;20.460;2022-11-15T05:09:12;3.82;96.85
65864;SHT30;52639;51.180;20.460;2022-11-15T05:13:15;3.84;96.55
65864;SHT30;52639;51.180;20.460;2022-11-15T05:17:19;3.81;97.00
65864;SHT30;52639;51.180;20.460;2022-11-15T05:21:22;3.79;96.75
65864;SHT30;52639;51.180;20.460;2022-11-15T05:25:25;3.78;96.50
65864;SHT30;52639;51.180;20.460;2022-11-15T05:29:28;3.75;96.36
65864;SHT30;52639;51.180;20.460;2022-11-15T05:33:32;3.74;96.10
65864;SHT30;52639;51.180;20.460;2022-11-15T05:37:35;3.71;96.38
65864;SHT30;52639;51.180;20.460;2022-11-15T05:41:41;3.71;96.50
65864;SHT30;52639;51.180;20.460;2022-11-15T05:45:45;3.68;96.78
65864;SHT30;52639;51.180;20.460;2022-11-15T05:49:50;3.67;96.65
65864;SHT30;52639;51.180;20.460;2022-11-15T05:53:53;3.68;96.66
65864;SHT30;52639;51.180;20.460;2022-11-15T05:57:57;3.67;96.80
65864;SHT30;52639;51.180;20.460;2022-11-15T06:02:00;3.68;96.99
65864;SHT30;52639;51.180;20.460;2022-11-15T06:06:06;3.67;96.87
65864;SHT30;52639;51.180;20.460;2022-11-15T06:10:09;3.68;96.91
65864;SHT30;52639;51.180;20.460;2022-11-15T06:14:13;3.70;96.73
65864;SHT30;52639;51.180;20.460;2022-11-15T06:18:16;3.77;96.51
65864;SHT30;52639;51.180;20.460;2022-11-15T06:22:20;3.77;96.71
65864;SHT30;52639;51.180;20.460;2022-11-15T06:26:23;3.84;96.38
65864;SHT30;52639;51.180;20.460;2022-11-15T06:30:26;3.89;96.29
65864;SHT30;52639;51.180;20.460;2022-11-15T06:34:29;3.96;96.06
65864;SHT30;52639;51.180;20.460;2022-11-15T06:38:34;3.95;96.25
65864;SHT30;52639;51.180;20.460;2022-11-15T06:42:37;4.02;96.17
65864;SHT30;52639;51.180;20.460;2022-11-15T06:46:39;4.06;96.14
65864;SHT30;52639;51.180;20.460;2022-11-15T06:50:42;4.15;96.23
65864;SHT30;52639;51.180;20.460;2022-11-15T06:54:46;4.23;95.74
65864;SHT30;52639;51.180;20.460;2022-11-15T06:58:49;4.23;95.79
65864;SHT30;52639;51.180;20.460;2022-11-15T07:02:51;4.25;95.98
65864;SHT30;52639;51.180;20.460;2022-11-15T07:06:54;4.42;95.77
65864;SHT30;52639;51.180;20.460;2022-11-15T07:11:00;4.70;95.43
65864;SHT30;52639;51.180;20.460;2022-11-15T07:15:10;4.79;95.15
65864;SHT30;52639;51.180;20.460;2022-11-15T07:19:16;4.67;94.99
65864;SHT30;52639;51.180;20.460;2022-11-15T07:23:19;4.63;95.33
65864;SHT30;52639;51.180;20.460;2022-11-15T07:27:23;4.48;95.75
65864;SHT30;52639;51.180;20.460;2022-11-15T07:31:25;4.74;95.98
65864;SHT30;52639;51.180;20.460;2022-11-15T07:35:29;4.77;95.72
65864;SHT30;52639;51.180;20.460;2022-11-15T07:39:33;5.07;95.05
65864;SHT30;52639;51.180;20.460;2022-11-15T07:43:37;5.28;94.94
65864;SHT30;52639;51.180;20.460;2022-11-15T07:47:40;5.41;94.29
65864;SHT30;52639;51.180;20.460;2022-11-15T07:51:43;5.45;94.16
65864;SHT30;52639;51.180;20.460;2022-11-15T07:55:46;5.61;94.19
65864;SHT30;52639;51.180;20.460;2022-11-15T07:59:50;5.59;94.46
65864;SHT30;52639;51.180;20.460;2022-11-15T08:03:54;5.72;93.77
65864;SHT30;52639;51.180;20.460;2022-11-15T08:07:56;5.88;94.19
65864;SHT30;52639;51.180;20.460;2022-11-15T08:11:59;6.06;93.08
65864;SHT30;52639;51.180;20.460;2022-11-15T08:21:33;6.20;92.36
65864;SHT30;52639;51.180;20.460;2022-11-15T08:25:36;6.46;91.83
65864;SHT30;52639;51.180;20.460;2022-11-15T08:29:39;6.26;91.86
65864;SHT30;52639;51.180;20.460;2022-11-15T08:33:43;6.43;91.96
65864;SHT30;52639;51.180;20.460;2022-11-15T08:37:47;6.76;93.35
65864;SHT30;52639;51.180;20.460;2022-11-15T08:41:50;6.61;90.34
65864;SHT30;52639;51.180;20.460;2022-11-15T08:45:57;6.90;91.39
65864;SHT30;52639;51.180;20.460;2022-11-15T08:50:03;7.23;90.39
65864;SHT30;52639;51.180;20.460;2022-11-15T08:54:07;9.25;86.52
65864;SHT30;52639;51.180;20.460;2022-11-15T08:58:10;11.15;82.05
65864;SHT30;52639;51.180;20.460;2022-11-15T09:02:14;12.04;81.13
65864;SHT30;52639;51.180;20.460;2022-11-15T09:06:19;12.99;74.61
65864;SHT30;52639;51.180;20.460;2022-11-15T09:10:23;15.07;74.13
65864;SHT30;52639;51.180;20.460;2022-11-15T09:14:26;15.95;69.09
65864;SHT30;52639;51.180;20.460;2022-11-15T09:18:29;16.80;68.98
65864;SHT30;52639;51.180;20.460;2022-11-15T09:22:32;16.87;71.81
65864;SHT30;52639;51.180;20.460;2022-11-15T09:26:36;17.48;71.39
65864;SHT30;52639;51.180;20.460;2022-11-15T09:30:38;17.89;70.45
65864;SHT30;52639;51.180;20.460;2022-11-15T09:34:44;17.96;70.98
65864;SHT30;52639;51.180;20.460;2022-11-15T09:38:47;18.12;72.30
65864;SHT30;52639;51.180;20.460;2022-11-15T09:43:05;18.38;70.30
65864;SHT30;52639;51.180;20.460;2022-11-15T09:47:32;18.48;70.33
65864;SHT30;52639;51.180;20.460;2022-11-15T09:51:39;18.64;70.25
65864;SHT30;52639;51.180;20.460;2022-11-15T09:55:51;16.91;71.31
65864;SHT30;52639;51.180;20.460;2022-11-15T10:00:11;12.02;81.92
65864;SHT30;52639;51.180;20.460;2022-11-15T10:09:47;10.34;88.25
65864;SHT30;52639;51.180;20.460;2022-11-15T10:14:25;10.24;87.56
65864;SHT30;52639;51.180;20.460;2022-11-15T10:18:38;10.21;86.43
65864;SHT30;52639;51.180;20.460;2022-11-15T10:26:53;10.13;85.24
65864;SHT30;52639;51.180;20.460;2022-11-15T10:31:23;10.28;84.75
65864;SHT30;52639;51.180;20.460;2022-11-15T10:35:29;10.27;84.46
65864;SHT30;52639;51.180;20.460;2022-11-15T10:39:32;10.35;83.94
65864;SHT30;52639;51.180;20.460;2022-11-15T10:43:35;10.46;83.22
65864;SHT30;52639;51.180;20.460;2022-11-15T10:47:38;10.51;82.30
65864;SHT30;52639;51.180;20.460;2022-11-15T10:56:48;10.65;82.14
65864;SHT30;52639;51.180;20.460;2022-11-15T11:00:53;10.72;82.58
65864;SHT30;52639;51.180;20.460;2022-11-15T11:04:57;10.85;81.61
65864;SHT30;52639;51.180;20.460;2022-11-15T11:09:02;10.83;81.04
65864;SHT30;52639;51.180;20.460;2022-11-15T11:13:14;10.80;81.70
65864;SHT30;52639;51.180;20.460;2022-11-15T11:17:23;10.86;81.88
65864;SHT30;52639;51.180;20.460;2022-11-15T11:21:37;10.95;81.68
65864;SHT30;52639;51.180;20.460;2022-11-15T11:25:47;10.95;81.53
65864;SHT30;52639;51.180;20.460;2022-11-15T11:30:09;11.03;79.45
65864;SHT30;52639;51.180;20.460;2022-11-15T11:34:16;11.02;81.47
65864;SHT30;52639;51.180;20.460;2022-11-15T11:38:34;11.12;81.42
65864;SHT30;52639;51.180;20.460;2022-11-15T11:42:44;11.12;81.40
65864;SHT30;52639;51.180;20.460;2022-11-15T11:46:55;11.23;81.16
65864;SHT30;52639;51.180;20.460;2022-11-15T11:51:03;11.36;80.34
65864;SHT30;52639;51.180;20.460;2022-11-15T11:55:15;11.34;80.58
65864;SHT30;52639;51.180;20.460;2022-11-15T11:59:22;11.37;80.55
65864;SHT30;52639;51.180;20.460;2022-11-15T12:03:34;11.36;79.61
65864;SHT30;52639;51.180;20.460;2022-11-15T12:07:41;11.42;80.48
65864;SHT30;52639;51.180;20.460;2022-11-15T12:11:51;11.43;80.16
65864;SHT30;52639;51.180;20.460;2022-11-15T12:15:59;11.33;81.10
65864;SHT30;52639;51.180;20.460;2022-11-15T12:20:16;11.26;80.37
65864;SHT30;52639;51.180;20.460;2022-11-15T12:24:22;11.19;80.71
65864;SHT30;52639;51.180;20.460;2022-11-15T12:28:34;11.05;81.79
65864;SHT30;52639;51.180;20.460;2022-11-15T12:32:49;11.03;81.31
65864;SHT30;52639;51.180;20.460;2022-11-15T12:36:55;10.89;81.85
65864;SHT30;52639;51.180;20.460;2022-11-15T12:41:14;10.92;81.52
65864;SHT30;52639;51.180;20.460;2022-11-15T12:45:27;10.88;81.61
65864;SHT30;52639;51.180;20.460;2022-11-15T12:49:44;10.76;81.74
65864;SHT30;52639;51.180;20.460;2022-11-15T12:53:49;10.75;81.60
65864;SHT30;52639;51.180;20.460;2022-11-15T12:57:51;10.59;81.70
65864;SHT30;52639;51.180;20.460;2022-11-15T13:01:59;10.61;81.87
65864;SHT30;52639;51.180;20.460;2022-11-15T13:06:33;10.48;82.33
65864;SHT30;52639;51.180;20.460;2022-11-15T13:10:38;10.30;82.69
65864;SHT30;52639;51.180;20.460;2022-11-15T13:14:54;10.21;83.12
65864;SHT30;52639;51.180;20.460;2022-11-15T13:18:59;10.20;82.70
65864;SHT30;52639;51.180;20.460;2022-11-15T13:23:09;10.13;82.98
65864;SHT30;52639;51.180;20.460;2022-11-15T13:27:15;10.05;83.25
65864;SHT30;52639;51.180;20.460;2022-11-15T13:31:29;9.86;83.60
65864;SHT30;52639;51.180;20.460;2022-11-15T13:35:33;9.86;83.62
65864;SHT30;52639;51.180;20.460;2022-11-15T13:39:39;9.74;83.41
65864;SHT30;52639;51.180;20.460;2022-11-15T13:43:43;9.54;83.81
65864;SHT30;52639;51.180;20.460;2022-11-15T13:47:51;9.25;84.30
65864;SHT30;52639;51.180;20.460;2022-11-15T13:51:55;9.01;84.92
65864;SHT30;52639;51.180;20.460;2022-11-15T13:55:59;8.82;85.27
65864;SHT30;52639;51.180;20.460;2022-11-15T14:00:06;8.61;85.59
65864;SHT30;52639;51.180;20.460;2022-11-15T14:04:12;8.41;85.69
65864;SHT30;52639;51.180;20.460;2022-11-15T14:08:22;8.31;85.97
65864;SHT30;52639;51.180;20.460;2022-11-15T14:12:30;8.26;85.83
65864;SHT30;52639;51.180;20.460;2022-11-15T14:16:36;8.10;86.05
65864;SHT30;52639;51.180;20.460;2022-11-15T14:20:39;7.79;86.36
65864;SHT30;52639;51.180;20.460;2022-11-15T14:24:44;7.45;86.79
65864;SHT30;52639;51.180;20.460;2022-11-15T14:29:23;7.21;87.64
65864;SHT30;52639;51.180;20.460;2022-11-15T14:33:28;6.90;87.70
65864;SHT30;52639;51.180;20.460;2022-11-15T14:37:33;6.74;88.19
65864;SHT30;52639;51.180;20.460;2022-11-15T14:41:37;6.41;88.41
65864;SHT30;52639;51.180;20.460;2022-11-15T14:45:40;6.22;88.62
65864;SHT30;52639;51.180;20.460;2022-11-15T14:49:44;6.03;89.04
65864;SHT30;52639;51.180;20.460;2022-11-15T14:53:48;6.10;89.34
65864;SHT30;52639;51.180;20.460;2022-11-15T14:57:53;6.09;88.45
65864;SHT30;52639;51.180;20.460;2022-11-15T15:02:04;5.93;88.38
65864;SHT30;52639;51.180;20.460;2022-11-15T15:06:11;5.58;88.99
65864;SHT30;52639;51.180;20.460;2022-11-15T15:10:16;5.45;89.21
65864;SHT30;52639;51.180;20.460;2022-11-15T15:14:19;5.08;89.09
65864;SHT30;52639;51.180;20.460;2022-11-15T15:18:22;4.79;90.10
65864;SHT30;52639;51.180;20.460;2022-11-15T15:22:28;5.05;90.15
65864;SHT30;52639;51.180;20.460;2022-11-15T15:26:31;4.94;89.84
65864;SHT30;52639;51.180;20.460;2022-11-15T15:30:37;4.74;89.34
65864;SHT30;52639;51.180;20.460;2022-11-15T15:34:48;4.64;89.83
65864;SHT30;52639;51.180;20.460;2022-11-15T15:39:41;4.57;89.98
65864;SHT30;52639;51.180;20.460;2022-11-15T15:44:36;4.38;89.76
65864;SHT30;52639;51.180;20.460;2022-11-15T15:49:03;4.33;90.10
65864;SHT30;52639;51.180;20.460;2022-11-15T15:53:52;4.16;89.68
65864;SHT30;52639;51.180;20.460;2022-11-15T15:58:44;3.91;90.67
65864;SHT30;52639;51.180;20.460;2022-11-15T16:03:06;3.78;90.14
65864;SHT30;52639;51.180;20.460;2022-11-15T16:07:16;3.88;90.90
65864;SHT30;52639;51.180;20.460;2022-11-15T16:11:20;3.64;90.18
65864;SHT30;52639;51.180;20.460;2022-11-15T16:15:25;3.35;90.59
65864;SHT30;52639;51.180;20.460;2022-11-15T16:19:32;3.47;91.64
65864;SHT30;52639;51.180;20.460;2022-11-15T16:23:34;3.63;90.93
65864;SHT30;52639;51.180;20.460;2022-11-15T16:27:37;3.53;90.36
65864;SHT30;52639;51.180;20.460;2022-11-15T16:31:49;3.41;90.29
65864;SHT30;52639;51.180;20.460;2022-11-15T16:35:52;3.28;90.71
65864;SHT30;52639;51.180;20.460;2022-11-15T16:39:54;3.21;90.99
65864;SHT30;52639;51.180;20.460;2022-11-15T16:43:58;3.19;91.19
65864;SHT30;52639;51.180;20.460;2022-11-15T16:48:02;2.97;90.66
65864;SHT30;52639;51.180;20.460;2022-11-15T16:52:05;2.73;90.96
65864;SHT30;52639;51.180;20.460;2022-11-15T16:56:21;2.69;91.32
65864;SHT30;52639;51.180;20.460;2022-11-15T17:00:25;2.97;91.74
65864;SHT30;52639;51.180;20.460;2022-11-15T17:04:29;2.96;90.64
65864;SHT30;52639;51.180;20.460;2022-11-15T17:08:34;2.90;91.11
65864;SHT30;52639;51.180;20.460;2022-11-15T17:12:37;2.77;91.12
65864;SHT30;52639;51.180;20.460;2022-11-15T17:16:40;2.58;90.96
65864;SHT30;52639;51.180;20.460;2022-11-15T17:20:46;2.39;91.21
65864;SHT30;52639;51.180;20.460;2022-11-15T17:24:50;2.18;91.56
65864;SHT30;52639;51.180;20.460;2022-11-15T17:28:54;2.31;91.53
65864;SHT30;52639;51.180;20.460;2022-11-15T17:32:58;2.18;91.56
65864;SHT30;52639;51.180;20.460;2022-11-15T17:37:05;2.02;91.73
65864;SHT30;52639;51.180;20.460;2022-11-15T17:41:12;1.94;91.87
65864;SHT30;52639;51.180;20.460;2022-11-15T17:45:16;1.85;92.01
65864;SHT30;52639;51.180;20.460;2022-11-15T17:49:19;1.95;92.57
65864;SHT30;52639;51.180;20.460;2022-11-15T17:53:25;2.05;92.17
65864;SHT30;52639;51.180;20.460;2022-11-15T17:57:28;2.11;91.61
65864;SHT30;52639;51.180;20.460;2022-11-15T18:01:32;2.05;91.40
65864;SHT30;52639;51.180;20.460;2022-11-15T18:05:36;2.12;92.34
65864;SHT30;52639;51.180;20.460;2022-11-15T18:09:42;2.14;91.96
65864;SHT30;52639;51.180;20.460;2022-11-15T18:13:47;2.17;91.91
65864;SHT30;52639;51.180;20.460;2022-11-15T18:17:50;2.25;91.96
65864;SHT30;52639;51.180;20.460;2022-11-15T18:21:53;2.34;92.05
65864;SHT30;52639;51.180;20.460;2022-11-15T18:26:01;2.50;91.87
65864;SHT30;52639;51.180;20.460;2022-11-15T18:30:06;2.56;91.73
65864;SHT30;52639;51.180;20.460;2022-11-15T18:34:09;2.66;91.89
65864;SHT30;52639;51.180;20.460;2022-11-15T18:38:18;2.82;92.07
65864;SHT30;52639;51.180;20.460;2022-11-15T18:42:42;2.87;91.99
65864;SHT30;52639;51.180;20.460;2022-11-15T18:46:50;2.89;91.85
65864;SHT30;52639;51.180;20.460;2022-11-15T18:51:00;2.89;91.79
65864;SHT30;52639;51.180;20.460;2022-11-15T18:55:17;2.89;91.81
65864;SHT30;52639;51.180;20.460;2022-11-15T18:59:42;2.89;91.96
65864;SHT30;52639;51.180;20.460;2022-11-15T19:04:05;2.87;92.06
65864;SHT30;52639;51.180;20.460;2022-11-15T19:08:10;2.83;91.98
65864;SHT30;52639;51.180;20.460;2022-11-15T19:12:13;2.86;92.37
65864;SHT30;52639;51.180;20.460;2022-11-15T19:16:18;2.90;92.15
65864;SHT30;52639;51.180;20.460;2022-11-15T19:20:21;2.95;92.27
65864;SHT30;52639;51.180;20.460;2022-11-15T19:24:25;3.00;92.20
65864;SHT30;52639;51.180;20.460;2022-11-15T19:28:31;3.06;92.24
65864;SHT30;52639;51.180;20.460;2022-11-15T19:32:39;3.10;92.16
65864;SHT30;52639;51.180;20.460;2022-11-15T19:36:43;3.13;92.31
65864;SHT30;52639;51.180;20.460;2022-11-15T19:40:48;3.23;92.27
65864;SHT30;52639;51.180;20.460;2022-11-15T19:44:52;3.24;92.33
65864;SHT30;52639;51.180;20.460;2022-11-15T19:48:57;3.30;92.22
65864;SHT30;52639;51.180;20.460;2022-11-15T19:53:01;3.33;92.33
65864;SHT30;52639;51.180;20.460;2022-11-15T19:57:05;3.38;92.49
65864;SHT30;52639;51.180;20.460;2022-11-15T20:01:13;3.45;92.18
65864;SHT30;52639;51.180;20.460;2022-11-15T20:05:18;3.47;92.29
65864;SHT30;52639;51.180;20.460;2022-11-15T20:09:23;3.50;92.32
65864;SHT30;52639;51.180;20.460;2022-11-15T20:13:28;3.53;92.52
65864;SHT30;52639;51.180;20.460;2022-11-15T20:17:33;3.61;92.43
65864;SHT30;52639;51.180;20.460;2022-11-15T20:21:42;3.60;92.41
65864;SHT30;52639;51.180;20.460;2022-11-15T20:25:49;3.63;92.41
65864;SHT30;52639;51.180;20.460;2022-11-15T20:29:52;3.67;92.44
65864;SHT30;52639;51.180;20.460;2022-11-15T20:33:56;3.65;92.66
65864;SHT30;52639;51.180;20.460;2022-11-15T20:38:03;3.73;92.56
65864;SHT30;52639;51.180;20.460;2022-11-15T20:42:08;3.73;92.58
65864;SHT30;52639;51.180;20.460;2022-11-15T20:46:11;3.77;92.67
65864;SHT30;52639;51.180;20.460;2022-11-15T20:50:17;3.82;92.59
65864;SHT30;52639;51.180;20.460;2022-11-15T20:54:21;3.92;92.53
65864;SHT30;52639;51.180;20.460;2022-11-15T20:58:25;3.92;92.56
65864;SHT30;52639;51.180;20.460;2022-11-15T21:02:33;3.94;92.68
65864;SHT30;52639;51.180;20.460;2022-11-15T21:06:36;4.01;92.70
65864;SHT30;52639;51.180;20.460;2022-11-15T21:10:41;4.08;92.68
65864;SHT30;52639;51.180;20.460;2022-11-15T21:15:01;4.10;92.58
65864;SHT30;52639;51.180;20.460;2022-11-15T21:19:04;4.06;92.68
65864;SHT30;52639;51.180;20.460;2022-11-15T21:23:08;4.09;92.66
65864;SHT30;52639;51.180;20.460;2022-11-15T21:27:13;4.10;92.69
65864;SHT30;52639;51.180;20.460;2022-11-15T21:31:16;4.10;92.84
65864;SHT30;52639;51.180;20.460;2022-11-15T21:35:18;4.12;92.87
65864;SHT30;52639;51.180;20.460;2022-11-15T21:39:25;4.19;92.93
65864;SHT30;52639;51.180;20.460;2022-11-15T21:43:29;4.25;93.16
65864;SHT30;52639;51.180;20.460;2022-11-15T21:47:32;4.39;92.95
65864;SHT30;52639;51.180;20.460;2022-11-15T21:51:36;4.48;92.91
65864;SHT30;52639;51.180;20.460;2022-11-15T21:55:39;4.49;92.93
65864;SHT30;52639;51.180;20.460;2022-11-15T21:59:43;4.54;92.77
65864;SHT30;52639;51.180;20.460;2022-11-15T22:04:03;4.54;92.86
65864;SHT30;52639;51.180;20.460;2022-11-15T22:08:06;4.56;93.14
65864;SHT30;52639;51.180;20.460;2022-11-15T22:12:09;4.50;93.46
65864;SHT30;52639;51.180;20.460;2022-11-15T22:16:13;4.49;93.56
65864;SHT30;52639;51.180;20.460;2022-11-15T22:20:31;4.49;93.64
65864;SHT30;52639;51.180;20.460;2022-11-15T22:24:40;4.46;93.51
65864;SHT30;52639;51.180;20.460;2022-11-15T22:28:43;4.43;93.79
65864;SHT30;52639;51.180;20.460;2022-11-15T22:32:47;4.40;94.02
65864;SHT30;52639;51.180;20.460;2022-11-15T22:36:50;4.39;93.89
65864;SHT30;52639;51.180;20.460;2022-11-15T22:40:52;4.33;93.67
65864;SHT30;52639;51.180;20.460;2022-11-15T22:44:56;4.23;93.79
65864;SHT30;52639;51.180;20.460;2022-11-15T22:49:00;4.23;93.79
65864;SHT30;52639;51.180;20.460;2022-11-15T22:53:02;4.19;94.20
65864;SHT30;52639;51.180;20.460;2022-11-15T22:57:05;4.19;93.94
65864;SHT30;52639;51.180;20.460;2022-11-15T23:01:18;4.18;94.06
65864;SHT30;52639;51.180;20.460;2022-11-15T23:05:22;4.16;94.30
65864;SHT30;52639;51.180;20.460;2022-11-15T23:09:25;4.09;94.93
65864;SHT30;52639;51.180;20.460;2022-11-15T23:13:29;4.12;94.74
65864;SHT30;52639;51.180;20.460;2022-11-15T23:17:31;4.13;94.76
65864;SHT30;52639;51.180;20.460;2022-11-15T23:21:36;4.15;94.88
65864;SHT30;52639;51.180;20.460;2022-11-15T23:25:57;4.18;94.56
65864;SHT30;52639;51.180;20.460;2022-11-15T23:30:00;4.19;94.65
65864;SHT30;52639;51.180;20.460;2022-11-15T23:34:20;4.22;94.54
65864;SHT30;52639;51.180;20.460;2022-11-15T23:38:24;4.23;94.02
65864;SHT30;52639;51.180;20.460;2022-11-15T23:42:27;4.25;94.04
65864;SHT30;52639;51.180;20.460;2022-11-15T23:46:29;4.28;93.97
65864;SHT30;52639;51.180;20.460;2022-11-15T23:50:34;4.29;93.84
65864;SHT30;52639;51.180;20.460;2022-11-15T23:54:37;4.26;94.21
65864;SHT30;52639;51.180;20.460;2022-11-15T23:58:40;4.29;94.11
